sensor_id;sensor_type;location;lat;lon;timestamp;temperature;humidity
75022;SHT31;63583;49.976;20.182;2023-04-24T00:02:23;12.20;54.13
75022;SHT31;63583;49.976;20.182;2023-04-24T00:04:49;12.18;54.06
75022;SHT31;63583;49.976;20.182;2023-04-24T00:07:15;12.17;54.06
75022;SHT31;63583;49.976;20.182;2023-04-24T00:09:45;12.20;53.98
75022;SHT31;63583;49.976;20.182;2023-04-24T00:12:11;12.21;53.87
75022;SHT31;63583;49.976;20.182;2023-04-24T00:14:36;12.13;54.05
75022;SHT31;63583;49.976;20.182;2023-04-24T00:17:02;12.08;54.04
75022;SHT31;63583;49.976;20.182;2023-04-24T00:19:28;12.08;54.11
75022;SHT31;63583;49.976;20.182;2023-04-24T00:21:54;12.08;54.11
75022;SHT31;63583;49.976;20.182;2023-04-24T00:24:20;12.10;54.19
75022;SHT31;63583;49.976;20.182;2023-04-24T00:26:46;12.06;54.18
75022;SHT31;63583;49.976;20.182;2023-04-24T00:29:12;12.00;54.32
75022;SHT31;63583;49.976;20.182;2023-04-24T00:31:38;12.01;54.37
75022;SHT31;63583;49.976;20.182;2023-04-24T00:34:04;11.94;54.60
75022;SHT31;63583;49.976;20.182;2023-04-24T00:36:30;11.89;54.76
75022;SHT31;63583;49.976;20.182;2023-04-24T00:38:56;11.90;54.66
75022;SHT31;63583;49.976;20.182;2023-04-24T00:41:23;11.86;54.65
75022;SHT31;63583;49.976;20.182;2023-04-24T00:43:49;11.86;54.69
75022;SHT31;63583;49.976;20.182;2023-04-24T00:46:16;11.82;55.30
75022;SHT31;63583;49.976;20.182;2023-04-24T00:48:42;11.80;55.31
75022;SHT31;63583;49.976;20.182;2023-04-24T00:51:08;11.79;55.30
75022;SHT31;63583;49.976;20.182;2023-04-24T00:53:34;11.76;55.24
75022;SHT31;63583;49.976;20.182;2023-04-24T00:56:00;11.70;55.04
75022;SHT31;63583;49.976;20.182;2023-04-24T00:58:26;11.66;54.88
75022;SHT31;63583;49.976;20.182;2023-04-24T01:00:53;11.58;55.22
75022;SHT31;63583;49.976;20.182;2023-04-24T01:03:20;11.52;55.17
75022;SHT31;63583;49.976;20.182;2023-04-24T01:05:49;11.51;55.02
75022;SHT31;63583;49.976;20.182;2023-04-24T01:08:14;11.66;54.24
75022;SHT31;63583;49.976;20.182;2023-04-24T01:10:41;11.77;54.11
75022;SHT31;63583;49.976;20.182;2023-04-24T01:13:08;11.76;54.43
75022;SHT31;63583;49.976;20.182;2023-04-24T01:15:34;11.72;54.70
75022;SHT31;63583;49.976;20.182;2023-04-24T01:18:00;11.69;54.98
75022;SHT31;63583;49.976;20.182;2023-04-24T01:20:26;11.79;54.92
75022;SHT31;63583;49.976;20.182;2023-04-24T01:22:52;11.76;54.71
75022;SHT31;63583;49.976;20.182;2023-04-24T01:25:20;11.73;54.92
75022;SHT31;63583;49.976;20.182;2023-04-24T01:27:46;11.77;54.84
75022;SHT31;63583;49.976;20.182;2023-04-24T01:30:12;11.94;54.41
75022;SHT31;63583;49.976;20.182;2023-04-24T01:32:38;11.90;53.87
75022;SHT31;63583;49.976;20.182;2023-04-24T01:35:04;11.87;53.78
75022;SHT31;63583;49.976;20.182;2023-04-24T01:37:30;11.76;54.03
75022;SHT31;63583;49.976;20.182;2023-04-24T01:39:57;11.68;54.41
75022;SHT31;63583;49.976;20.182;2023-04-24T01:42:23;11.56;54.73
75022;SHT31;63583;49.976;20.182;2023-04-24T01:44:49;11.58;54.62
75022;SHT31;63583;49.976;20.182;2023-04-24T01:47:15;11.55;54.41
75022;SHT31;63583;49.976;20.182;2023-04-24T01:49:41;11.62;54.48
75022;SHT31;63583;49.976;20.182;2023-04-24T01:52:06;11.62;54.30
75022;SHT31;63583;49.976;20.182;2023-04-24T01:54:32;11.61;54.63
75022;SHT31;63583;49.976;20.182;2023-04-24T01:56:57;11.61;54.87
75022;SHT31;63583;49.976;20.182;2023-04-24T01:59:24;11.56;54.87
75022;SHT31;63583;49.976;20.182;2023-04-24T02:01:50;11.49;55.12
75022;SHT31;63583;49.976;20.182;2023-04-24T02:04:16;11.46;55.14
75022;SHT31;63583;49.976;20.182;2023-04-24T02:06:41;11.46;55.04
75022;SHT31;63583;49.976;20.182;2023-04-24T02:09:07;11.54;54.74
75022;SHT31;63583;49.976;20.182;2023-04-24T02:11:33;11.54;54.87
75022;SHT31;63583;49.976;20.182;2023-04-24T02:13:58;11.52;55.04
75022;SHT31;63583;49.976;20.182;2023-04-24T02:16:24;11.43;55.45
75022;SHT31;63583;49.976;20.182;2023-04-24T02:18:50;11.36;55.70
75022;SHT31;63583;49.976;20.182;2023-04-24T02:21:15;11.34;55.96
75022;SHT31;63583;49.976;20.182;2023-04-24T02:23:41;11.31;56.02
75022;SHT31;63583;49.976;20.182;2023-04-24T02:26:07;11.31;56.16
75022;SHT31;63583;49.976;20.182;2023-04-24T02:28:32;11.35;56.25
75022;SHT31;63583;49.976;20.182;2023-04-24T02:30:58;11.25;56.34
75022;SHT31;63583;49.976;20.182;2023-04-24T02:33:24;11.21;56.56
75022;SHT31;63583;49.976;20.182;2023-04-24T02:35:49;11.03;57.31
75022;SHT31;63583;49.976;20.182;2023-04-24T02:38:15;11.01;57.54
75022;SHT31;63583;49.976;20.182;2023-04-24T02:40:41;11.01;58.02
75022;SHT31;63583;49.976;20.182;2023-04-24T02:43:06;11.01;57.98
75022;SHT31;63583;49.976;20.182;2023-04-24T02:45:32;10.94;58.25
75022;SHT31;63583;49.976;20.182;2023-04-24T02:48:00;10.87;58.70
75022;SHT31;63583;49.976;20.182;2023-04-24T02:50:25;10.93;58.69
75022;SHT31;63583;49.976;20.182;2023-04-24T02:52:51;10.99;58.76
75022;SHT31;63583;49.976;20.182;2023-04-24T02:55:16;10.81;59.16
75022;SHT31;63583;49.976;20.182;2023-04-24T02:57:42;10.93;58.98
75022;SHT31;63583;49.976;20.182;2023-04-24T03:00:08;10.97;58.89
75022;SHT31;63583;49.976;20.182;2023-04-24T03:02:34;10.80;59.89
75022;SHT31;63583;49.976;20.182;2023-04-24T03:05:00;10.69;60.42
75022;SHT31;63583;49.976;20.182;2023-04-24T03:07:26;10.55;60.83
75022;SHT31;63583;49.976;20.182;2023-04-24T03:09:51;10.62;60.62
75022;SHT31;63583;49.976;20.182;2023-04-24T03:12:17;10.49;60.97
75022;SHT31;63583;49.976;20.182;2023-04-24T03:14:45;10.49;60.89
75022;SHT31;63583;49.976;20.182;2023-04-24T03:17:11;10.53;61.09
75022;SHT31;63583;49.976;20.182;2023-04-24T03:19:36;10.56;60.94
75022;SHT31;63583;49.976;20.182;2023-04-24T03:22:02;10.49;61.51
75022;SHT31;63583;49.976;20.182;2023-04-24T03:24:28;10.49;61.49
75022;SHT31;63583;49.976;20.182;2023-04-24T03:26:54;10.45;61.65
75022;SHT31;63583;49.976;20.182;2023-04-24T03:29:21;10.42;61.85
75022;SHT31;63583;49.976;20.182;2023-04-24T03:31:46;10.33;62.28
75022;SHT31;63583;49.976;20.182;2023-04-24T03:34:12;10.32;62.19
75022;SHT31;63583;49.976;20.182;2023-04-24T03:36:38;10.28;62.38
75022;SHT31;63583;49.976;20.182;2023-04-24T03:39:03;10.36;61.99
75022;SHT31;63583;49.976;20.182;2023-04-24T03:41:29;10.45;61.68
75022;SHT31;63583;49.976;20.182;2023-04-24T03:43:55;10.48;61.94
75022;SHT31;63583;49.976;20.182;2023-04-24T03:46:21;10.45;62.37
75022;SHT31;63583;49.976;20.182;2023-04-24T03:48:47;10.43;62.93
75022;SHT31;63583;49.976;20.182;2023-04-24T03:51:12;10.29;63.75
75022;SHT31;63583;49.976;20.182;2023-04-24T03:53:38;10.26;63.87
75022;SHT31;63583;49.976;20.182;2023-04-24T03:56:04;10.26;63.90
75022;SHT31;63583;49.976;20.182;2023-04-24T03:58:30;10.21;64.16
75022;SHT31;63583;49.976;20.182;2023-04-24T04:00:55;10.19;63.81
75022;SHT31;63583;49.976;20.182;2023-04-24T04:03:23;10.24;63.49
75022;SHT31;63583;49.976;20.182;2023-04-24T04:05:49;10.49;61.84
75022;SHT31;63583;49.976;20.182;2023-04-24T04:08:14;10.83;60.47
75022;SHT31;63583;49.976;20.182;2023-04-24T04:10:40;10.90;60.20
75022;SHT31;63583;49.976;20.182;2023-04-24T04:13:06;10.91;60.23
75022;SHT31;63583;49.976;20.182;2023-04-24T04:15:32;10.84;60.60
75022;SHT31;63583;49.976;20.182;2023-04-24T04:17:57;10.72;61.22
75022;SHT31;63583;49.976;20.182;2023-04-24T04:20:23;10.72;61.86
75022;SHT31;63583;49.976;20.182;2023-04-24T04:22:48;10.66;62.07
75022;SHT31;63583;49.976;20.182;2023-04-24T04:25:15;10.76;61.24
75022;SHT31;63583;49.976;20.182;2023-04-24T04:27:41;10.89;61.10
75022;SHT31;63583;49.976;20.182;2023-04-24T04:30:07;11.03;60.49
75022;SHT31;63583;49.976;20.182;2023-04-24T04:32:34;11.27;59.95
75022;SHT31;63583;49.976;20.182;2023-04-24T04:35:00;11.58;59.35
75022;SHT31;63583;49.976;20.182;2023-04-24T04:37:30;11.94;58.12
75022;SHT31;63583;49.976;20.182;2023-04-24T04:39:57;12.21;57.30
75022;SHT31;63583;49.976;20.182;2023-04-24T04:42:24;12.41;57.27
75022;SHT31;63583;49.976;20.182;2023-04-24T04:44:50;12.68;56.31
75022;SHT31;63583;49.976;20.182;2023-04-24T04:47:16;12.79;55.66
75022;SHT31;63583;49.976;20.182;2023-04-24T04:49:43;12.95;55.32
75022;SHT31;63583;49.976;20.182;2023-04-24T04:52:09;12.86;55.10
75022;SHT31;63583;49.976;20.182;2023-04-24T04:54:35;12.95;55.15
75022;SHT31;63583;49.976;20.182;2023-04-24T04:57:01;13.06;55.05
75022;SHT31;63583;49.976;20.182;2023-04-24T04:59:27;13.30;56.19
75022;SHT31;63583;49.976;20.182;2023-04-24T05:01:52;13.59;55.36
75022;SHT31;63583;49.976;20.182;2023-04-24T05:04:18;13.71;54.38
75022;SHT31;63583;49.976;20.182;2023-04-24T05:06:44;13.74;55.29
75022;SHT31;63583;49.976;20.182;2023-04-24T05:09:10;13.59;55.78
75022;SHT31;63583;49.976;20.182;2023-04-24T05:11:35;13.94;54.81
75022;SHT31;63583;49.976;20.182;2023-04-24T05:14:01;13.98;54.32
75022;SHT31;63583;49.976;20.182;2023-04-24T05:16:27;14.04;53.98
75022;SHT31;63583;49.976;20.182;2023-04-24T05:18:52;14.09;54.85
75022;SHT31;63583;49.976;20.182;2023-04-24T05:21:18;14.24;54.04
75022;SHT31;63583;49.976;20.182;2023-04-24T05:23:44;14.13;54.02
75022;SHT31;63583;49.976;20.182;2023-04-24T05:26:09;14.19;53.76
75022;SHT31;63583;49.976;20.182;2023-04-24T05:28:35;14.27;54.33
75022;SHT31;63583;49.976;20.182;2023-04-24T05:31:02;14.53;53.71
75022;SHT31;63583;49.976;20.182;2023-04-24T05:33:28;14.61;53.22
75022;SHT31;63583;49.976;20.182;2023-04-24T05:35:54;14.64;52.43
75022;SHT31;63583;49.976;20.182;2023-04-24T05:38:19;14.64;51.62
75022;SHT31;63583;49.976;20.182;2023-04-24T05:40:45;14.57;52.09
75022;SHT31;63583;49.976;20.182;2023-04-24T05:43:12;14.67;53.66
75022;SHT31;63583;49.976;20.182;2023-04-24T05:45:38;14.88;53.67
75022;SHT31;63583;49.976;20.182;2023-04-24T05:48:04;14.99;53.95
75022;SHT31;63583;49.976;20.182;2023-04-24T05:50:30;15.12;53.95
75022;SHT31;63583;49.976;20.182;2023-04-24T05:52:55;15.26;54.96
75022;SHT31;63583;49.976;20.182;2023-04-24T05:55:24;15.43;53.01
75022;SHT31;63583;49.976;20.182;2023-04-24T05:57:50;15.47;52.98
75022;SHT31;63583;49.976;20.182;2023-04-24T06:00:16;15.53;52.75
75022;SHT31;63583;49.976;20.182;2023-04-24T06:02:46;15.66;52.96
75022;SHT31;63583;49.976;20.182;2023-04-24T06:05:12;15.68;52.33
75022;SHT31;63583;49.976;20.182;2023-04-24T06:07:38;15.78;52.63
75022;SHT31;63583;49.976;20.182;2023-04-24T06:10:04;15.73;53.12
75022;SHT31;63583;49.976;20.182;2023-04-24T06:12:29;15.78;53.07
75022;SHT31;63583;49.976;20.182;2023-04-24T06:14:55;15.93;53.19
75022;SHT31;63583;49.976;20.182;2023-04-24T06:17:21;16.16;50.95
75022;SHT31;63583;49.976;20.182;2023-04-24T06:19:47;16.28;51.22
75022;SHT31;63583;49.976;20.182;2023-04-24T06:22:13;16.41;50.93
75022;SHT31;63583;49.976;20.182;2023-04-24T06:24:39;16.46;51.80
75022;SHT31;63583;49.976;20.182;2023-04-24T06:27:05;16.59;50.51
75022;SHT31;63583;49.976;20.182;2023-04-24T06:29:31;16.72;50.68
75022;SHT31;63583;49.976;20.182;2023-04-24T06:31:58;16.84;49.18
75022;SHT31;63583;49.976;20.182;2023-04-24T06:34:23;17.01;49.31
75022;SHT31;63583;49.976;20.182;2023-04-24T06:36:49;17.08;48.56
75022;SHT31;63583;49.976;20.182;2023-04-24T06:39:14;17.22;50.55
75022;SHT31;63583;49.976;20.182;2023-04-24T06:41:40;17.38;49.43
75022;SHT31;63583;49.976;20.182;2023-04-24T06:44:06;17.53;48.56
75022;SHT31;63583;49.976;20.182;2023-04-24T06:46:32;17.59;48.76
75022;SHT31;63583;49.976;20.182;2023-04-24T06:48:57;17.72;48.33
75022;SHT31;63583;49.976;20.182;2023-04-24T06:51:23;17.56;49.90
75022;SHT31;63583;49.976;20.182;2023-04-24T06:53:50;17.63;48.46
75022;SHT31;63583;49.976;20.182;2023-04-24T06:56:16;17.77;48.54
75022;SHT31;63583;49.976;20.182;2023-04-24T06:58:42;17.80;48.64
75022;SHT31;63583;49.976;20.182;2023-04-24T07:01:08;17.91;47.90
75022;SHT31;63583;49.976;20.182;2023-04-24T07:03:33;18.03;47.95
75022;SHT31;63583;49.976;20.182;2023-04-24T07:05:59;18.21;46.96
75022;SHT31;63583;49.976;20.182;2023-04-24T07:08:24;18.25;48.10
75022;SHT31;63583;49.976;20.182;2023-04-24T07:10:51;18.34;46.46
75022;SHT31;63583;49.976;20.182;2023-04-24T07:13:17;18.47;47.16
75022;SHT31;63583;49.976;20.182;2023-04-24T07:15:43;18.61;45.46
75022;SHT31;63583;49.976;20.182;2023-04-24T07:18:09;18.56;45.42
75022;SHT31;63583;49.976;20.182;2023-04-24T07:20:35;18.65;46.19
75022;SHT31;63583;49.976;20.182;2023-04-24T07:23:00;18.73;44.37
75022;SHT31;63583;49.976;20.182;2023-04-24T07:25:26;18.73;44.55
75022;SHT31;63583;49.976;20.182;2023-04-24T07:27:52;18.81;45.08
75022;SHT31;63583;49.976;20.182;2023-04-24T07:30:18;18.85;44.36
75022;SHT31;63583;49.976;20.182;2023-04-24T07:32:44;18.98;44.41
75022;SHT31;63583;49.976;20.182;2023-04-24T07:35:09;19.04;44.93
75022;SHT31;63583;49.976;20.182;2023-04-24T07:37:36;19.20;44.83
75022;SHT31;63583;49.976;20.182;2023-04-24T07:40:01;19.23;42.15
75022;SHT31;63583;49.976;20.182;2023-04-24T07:42:27;19.30;43.38
75022;SHT31;63583;49.976;20.182;2023-04-24T07:44:55;19.16;42.62
75022;SHT31;63583;49.976;20.182;2023-04-24T07:47:21;19.24;40.10
75022;SHT31;63583;49.976;20.182;2023-04-24T07:49:47;19.35;40.81
75022;SHT31;63583;49.976;20.182;2023-04-24T07:52:12;19.37;40.83
75022;SHT31;63583;49.976;20.182;2023-04-24T07:54:38;19.54;40.57
75022;SHT31;63583;49.976;20.182;2023-04-24T07:57:03;19.59;40.02
75022;SHT31;63583;49.976;20.182;2023-04-24T07:59:30;19.69;40.68
75022;SHT31;63583;49.976;20.182;2023-04-24T08:01:55;19.74;40.04
75022;SHT31;63583;49.976;20.182;2023-04-24T08:04:21;19.74;41.36
75022;SHT31;63583;49.976;20.182;2023-04-24T08:06:49;19.75;39.80
75022;SHT31;63583;49.976;20.182;2023-04-24T08:09:15;19.78;39.70
75022;SHT31;63583;49.976;20.182;2023-04-24T08:11:40;19.97;39.68
75022;SHT31;63583;49.976;20.182;2023-04-24T08:14:06;19.75;39.45
75022;SHT31;63583;49.976;20.182;2023-04-24T08:16:32;19.82;38.89
75022;SHT31;63583;49.976;20.182;2023-04-24T08:18:58;20.05;38.86
75022;SHT31;63583;49.976;20.182;2023-04-24T08:21:24;20.08;40.15
75022;SHT31;63583;49.976;20.182;2023-04-24T08:23:51;20.16;37.57
75022;SHT31;63583;49.976;20.182;2023-04-24T08:26:17;20.29;35.39
75022;SHT31;63583;49.976;20.182;2023-04-24T08:28:43;20.39;38.31
75022;SHT31;63583;49.976;20.182;2023-04-24T08:31:08;20.45;34.75
75022;SHT31;63583;49.976;20.182;2023-04-24T08:33:34;20.39;36.40
75022;SHT31;63583;49.976;20.182;2023-04-24T08:36:04;20.43;37.01
75022;SHT31;63583;49.976;20.182;2023-04-24T08:38:30;20.23;39.15
75022;SHT31;63583;49.976;20.182;2023-04-24T08:41:00;20.22;36.09
75022;SHT31;63583;49.976;20.182;2023-04-24T08:43:26;20.37;35.71
75022;SHT31;63583;49.976;20.182;2023-04-24T08:45:53;20.45;35.75
75022;SHT31;63583;49.976;20.182;2023-04-24T08:48:22;20.27;38.65
75022;SHT31;63583;49.976;20.182;2023-04-24T08:50:50;20.55;36.83
75022;SHT31;63583;49.976;20.182;2023-04-24T08:53:18;20.58;35.42
75022;SHT31;63583;49.976;20.182;2023-04-24T08:55:46;20.26;35.80
75022;SHT31;63583;49.976;20.182;2023-04-24T08:58:14;20.60;36.06
75022;SHT31;63583;49.976;20.182;2023-04-24T09:00:40;20.33;34.23
75022;SHT31;63583;49.976;20.182;2023-04-24T09:03:13;20.25;38.71
75022;SHT31;63583;49.976;20.182;2023-04-24T09:05:46;20.40;34.76
75022;SHT31;63583;49.976;20.182;2023-04-24T09:08:13;20.34;37.42
75022;SHT31;63583;49.976;20.182;2023-04-24T09:10:40;20.57;38.44
75022;SHT31;63583;49.976;20.182;2023-04-24T09:13:06;20.78;35.18
75022;SHT31;63583;49.976;20.182;2023-04-24T09:15:34;20.92;34.93
75022;SHT31;63583;49.976;20.182;2023-04-24T09:18:00;20.98;36.32
75022;SHT31;63583;49.976;20.182;2023-04-24T09:20:26;21.06;35.51
75022;SHT31;63583;49.976;20.182;2023-04-24T09:22:56;21.15;34.94
75022;SHT31;63583;49.976;20.182;2023-04-24T09:25:22;21.09;34.34
75022;SHT31;63583;49.976;20.182;2023-04-24T09:27:48;20.90;37.10
75022;SHT31;63583;49.976;20.182;2023-04-24T09:30:21;20.74;35.36
75022;SHT31;63583;49.976;20.182;2023-04-24T09:32:48;20.88;36.02
75022;SHT31;63583;49.976;20.182;2023-04-24T09:35:15;20.85;40.73
75022;SHT31;63583;49.976;20.182;2023-04-24T09:37:43;20.61;38.92
75022;SHT31;63583;49.976;20.182;2023-04-24T09:42:38;21.01;37.18
75022;SHT31;63583;49.976;20.182;2023-04-24T09:45:08;20.96;35.06
75022;SHT31;63583;49.976;20.182;2023-04-24T09:47:38;21.12;37.34
75022;SHT31;63583;49.976;20.182;2023-04-24T09:52:56;21.13;36.56
75022;SHT31;63583;49.976;20.182;2023-04-24T09:55:21;21.26;36.28
75022;SHT31;63583;49.976;20.182;2023-04-24T09:57:51;21.28;36.59
75022;SHT31;63583;49.976;20.182;2023-04-24T10:00:20;21.25;36.12
75022;SHT31;63583;49.976;20.182;2023-04-24T10:02:49;21.32;37.51
75022;SHT31;63583;49.976;20.182;2023-04-24T10:05:15;21.18;33.44
75022;SHT31;63583;49.976;20.182;2023-04-24T10:07:43;21.36;35.29
75022;SHT31;63583;49.976;20.182;2023-04-24T10:10:09;21.50;38.79
75022;SHT31;63583;49.976;20.182;2023-04-24T10:12:35;21.83;33.21
75022;SHT31;63583;49.976;20.182;2023-04-24T10:15:01;21.83;35.49
75022;SHT31;63583;49.976;20.182;2023-04-24T10:17:28;21.84;33.67
75022;SHT31;63583;49.976;20.182;2023-04-24T10:19:54;21.78;32.44
75022;SHT31;63583;49.976;20.182;2023-04-24T10:22:21;21.68;32.50
75022;SHT31;63583;49.976;20.182;2023-04-24T10:24:49;21.68;35.33
75022;SHT31;63583;49.976;20.182;2023-04-24T10:27:16;21.36;35.05
75022;SHT31;63583;49.976;20.182;2023-04-24T10:29:43;21.29;36.32
75022;SHT31;63583;49.976;20.182;2023-04-24T10:32:09;21.23;39.24
75022;SHT31;63583;49.976;20.182;2023-04-24T10:34:35;21.66;36.33
75022;SHT31;63583;49.976;20.182;2023-04-24T10:37:02;21.63;33.36
75022;SHT31;63583;49.976;20.182;2023-04-24T10:39:27;21.61;37.11
75022;SHT31;63583;49.976;20.182;2023-04-24T10:41:54;21.64;33.12
75022;SHT31;63583;49.976;20.182;2023-04-24T10:44:22;21.83;35.93
75022;SHT31;63583;49.976;20.182;2023-04-24T10:46:53;21.53;36.25
75022;SHT31;63583;49.976;20.182;2023-04-24T10:49:28;21.70;36.57
75022;SHT31;63583;49.976;20.182;2023-04-24T10:52:00;22.01;35.45
75022;SHT31;63583;49.976;20.182;2023-04-24T10:54:35;21.70;34.93
75022;SHT31;63583;49.976;20.182;2023-04-24T10:57:27;21.61;35.64
75022;SHT31;63583;49.976;20.182;2023-04-24T11:00:19;21.57;34.85
75022;SHT31;63583;49.976;20.182;2023-04-24T11:02:46;21.60;36.20
75022;SHT31;63583;49.976;20.182;2023-04-24T11:05:19;21.20;38.26
75022;SHT31;63583;49.976;20.182;2023-04-24T11:08:10;20.91;37.09
75022;SHT31;63583;49.976;20.182;2023-04-24T11:10:44;21.13;37.25
75022;SHT31;63583;49.976;20.182;2023-04-24T11:13:10;21.29;38.07
75022;SHT31;63583;49.976;20.182;2023-04-24T11:15:35;21.28;36.24
75022;SHT31;63583;49.976;20.182;2023-04-24T11:18:01;21.29;37.66
75022;SHT31;63583;49.976;20.182;2023-04-24T11:20:27;20.80;38.19
75022;SHT31;63583;49.976;20.182;2023-04-24T11:22:54;20.91;35.74
75022;SHT31;63583;49.976;20.182;2023-04-24T11:25:21;21.18;40.30
75022;SHT31;63583;49.976;20.182;2023-04-24T11:27:49;21.39;40.66
75022;SHT31;63583;49.976;20.182;2023-04-24T11:30:19;21.47;39.44
75022;SHT31;63583;49.976;20.182;2023-04-24T11:32:50;21.57;38.29
75022;SHT31;63583;49.976;20.182;2023-04-24T11:35:18;21.29;38.89
75022;SHT31;63583;49.976;20.182;2023-04-24T11:37:46;21.15;35.71
75022;SHT31;63583;49.976;20.182;2023-04-24T11:40:13;21.12;35.72
75022;SHT31;63583;49.976;20.182;2023-04-24T11:42:43;21.12;40.88
75022;SHT31;63583;49.976;20.182;2023-04-24T11:45:11;20.90;38.55
75022;SHT31;63583;49.976;20.182;2023-04-24T11:47:38;20.92;39.94
75022;SHT31;63583;49.976;20.182;2023-04-24T11:50:06;21.20;38.56
75022;SHT31;63583;49.976;20.182;2023-04-24T11:52:33;21.28;41.87
75022;SHT31;63583;49.976;20.182;2023-04-24T11:55:01;21.45;40.67
75022;SHT31;63583;49.976;20.182;2023-04-24T11:57:27;20.94;37.58
75022;SHT31;63583;49.976;20.182;2023-04-24T11:59:59;20.91;38.03
75022;SHT31;63583;49.976;20.182;2023-04-24T12:02:26;20.67;37.53
75022;SHT31;63583;49.976;20.182;2023-04-24T12:04:53;20.58;38.69
75022;SHT31;63583;49.976;20.182;2023-04-24T12:07:19;20.61;40.25
75022;SHT31;63583;49.976;20.182;2023-04-24T12:09:46;20.50;40.49
75022;SHT31;63583;49.976;20.182;2023-04-24T12:12:14;20.41;42.33
75022;SHT31;63583;49.976;20.182;2023-04-24T12:14:46;20.40;42.33
75022;SHT31;63583;49.976;20.182;2023-04-24T12:17:13;20.63;42.07
75022;SHT31;63583;49.976;20.182;2023-04-24T12:19:45;20.60;42.14
75022;SHT31;63583;49.976;20.182;2023-04-24T12:22:11;20.71;41.81
75022;SHT31;63583;49.976;20.182;2023-04-24T12:24:58;20.55;43.52
75022;SHT31;63583;49.976;20.182;2023-04-24T12:27:25;20.50;43.50
75022;SHT31;63583;49.976;20.182;2023-04-24T12:29:58;20.47;42.95
75022;SHT31;63583;49.976;20.182;2023-04-24T12:32:24;20.36;44.38
75022;SHT31;63583;49.976;20.182;2023-04-24T12:34:54;20.32;43.82
75022;SHT31;63583;49.976;20.182;2023-04-24T12:37:22;20.29;42.33
75022;SHT31;63583;49.976;20.182;2023-04-24T12:39:59;20.32;41.10
75022;SHT31;63583;49.976;20.182;2023-04-24T12:42:30;20.29;41.92
75022;SHT31;63583;49.976;20.182;2023-04-24T12:44:57;20.19;41.67
75022;SHT31;63583;49.976;20.182;2023-04-24T12:47:24;20.19;42.74
75022;SHT31;63583;49.976;20.182;2023-04-24T12:49:49;20.25;42.08
75022;SHT31;63583;49.976;20.182;2023-04-24T12:52:18;20.06;43.19
75022;SHT31;63583;49.976;20.182;2023-04-24T12:54:45;19.85;44.29
75022;SHT31;63583;49.976;20.182;2023-04-24T12:57:11;19.69;44.39
75022;SHT31;63583;49.976;20.182;2023-04-24T12:59:37;19.48;45.34
75022;SHT31;63583;49.976;20.182;2023-04-24T13:02:05;19.27;44.53
75022;SHT31;63583;49.976;20.182;2023-04-24T13:04:31;19.23;45.33
75022;SHT31;63583;49.976;20.182;2023-04-24T13:06:57;18.79;45.97
75022;SHT31;63583;49.976;20.182;2023-04-24T13:09:23;18.58;47.24
75022;SHT31;63583;49.976;20.182;2023-04-24T13:11:49;18.49;46.39
75022;SHT31;63583;49.976;20.182;2023-04-24T13:14:15;18.44;47.37
75022;SHT31;63583;49.976;20.182;2023-04-24T13:16:41;18.41;48.40
75022;SHT31;63583;49.976;20.182;2023-04-24T13:19:07;18.31;46.80
75022;SHT31;63583;49.976;20.182;2023-04-24T13:21:33;18.13;47.98
75022;SHT31;63583;49.976;20.182;2023-04-24T13:23:58;18.08;48.21
75022;SHT31;63583;49.976;20.182;2023-04-24T13:26:24;18.04;49.08
75022;SHT31;63583;49.976;20.182;2023-04-24T13:28:50;18.03;49.83
75022;SHT31;63583;49.976;20.182;2023-04-24T13:31:16;18.00;49.55
75022;SHT31;63583;49.976;20.182;2023-04-24T13:33:42;18.00;49.59
75022;SHT31;63583;49.976;20.182;2023-04-24T13:36:08;17.94;49.73
75022;SHT31;63583;49.976;20.182;2023-04-24T13:38:34;17.90;49.45
75022;SHT31;63583;49.976;20.182;2023-04-24T13:41:00;17.93;49.54
75022;SHT31;63583;49.976;20.182;2023-04-24T13:43:25;17.59;49.95
75022;SHT31;63583;49.976;20.182;2023-04-24T13:45:51;17.58;50.01
75022;SHT31;63583;49.976;20.182;2023-04-24T13:48:17;17.58;50.99
75022;SHT31;63583;49.976;20.182;2023-04-24T13:50:43;17.32;51.05
75022;SHT31;63583;49.976;20.182;2023-04-24T13:53:09;17.14;51.65
75022;SHT31;63583;49.976;20.182;2023-04-24T13:55:36;17.29;50.98
75022;SHT31;63583;49.976;20.182;2023-04-24T13:58:01;17.24;50.83
75022;SHT31;63583;49.976;20.182;2023-04-24T14:00:28;17.20;51.19
75022;SHT31;63583;49.976;20.182;2023-04-24T14:02:53;17.14;51.25
75022;SHT31;63583;49.976;20.182;2023-04-24T14:05:19;16.94;51.67
75022;SHT31;63583;49.976;20.182;2023-04-24T14:07:46;16.93;52.22
75022;SHT31;63583;49.976;20.182;2023-04-24T14:10:12;16.95;52.22
75022;SHT31;63583;49.976;20.182;2023-04-24T14:12:38;16.99;52.55
75022;SHT31;63583;49.976;20.182;2023-04-24T14:15:04;17.00;51.82
75022;SHT31;63583;49.976;20.182;2023-04-24T14:17:30;16.95;52.19
75022;SHT31;63583;49.976;20.182;2023-04-24T14:19:56;16.95;52.30
75022;SHT31;63583;49.976;20.182;2023-04-24T14:22:22;16.91;52.74
75022;SHT31;63583;49.976;20.182;2023-04-24T14:24:48;16.91;53.24
75022;SHT31;63583;49.976;20.182;2023-04-24T14:27:13;16.85;54.34
75022;SHT31;63583;49.976;20.182;2023-04-24T14:29:39;16.93;55.98
75022;SHT31;63583;49.976;20.182;2023-04-24T14:32:05;16.84;55.61
75022;SHT31;63583;49.976;20.182;2023-04-24T14:34:30;16.80;55.51
75022;SHT31;63583;49.976;20.182;2023-04-24T14:36:56;16.87;54.85
75022;SHT31;63583;49.976;20.182;2023-04-24T14:39:22;16.87;54.42
75022;SHT31;63583;49.976;20.182;2023-04-24T14:41:47;16.85;55.51
75022;SHT31;63583;49.976;20.182;2023-04-24T14:44:13;16.84;55.75
75022;SHT31;63583;49.976;20.182;2023-04-24T14:46:39;16.88;55.71
75022;SHT31;63583;49.976;20.182;2023-04-24T14:49:05;16.85;56.34
75022;SHT31;63583;49.976;20.182;2023-04-24T14:51:30;16.94;54.85
75022;SHT31;63583;49.976;20.182;2023-04-24T14:53:58;17.06;54.65
75022;SHT31;63583;49.976;20.182;2023-04-24T14:56:23;17.17;54.78
75022;SHT31;63583;49.976;20.182;2023-04-24T14:58:49;17.28;54.64
75022;SHT31;63583;49.976;20.182;2023-04-24T15:01:14;17.28;54.91
75022;SHT31;63583;49.976;20.182;2023-04-24T15:03:40;17.27;54.17
75022;SHT31;63583;49.976;20.182;2023-04-24T15:06:06;17.29;54.60
75022;SHT31;63583;49.976;20.182;2023-04-24T15:08:32;17.25;54.80
75022;SHT31;63583;49.976;20.182;2023-04-24T15:10:58;17.24;54.80
75022;SHT31;63583;49.976;20.182;2023-04-24T15:13:23;17.18;55.09
75022;SHT31;63583;49.976;20.182;2023-04-24T15:15:49;17.04;55.73
75022;SHT31;63583;49.976;20.182;2023-04-24T15:18:15;17.14;55.30